Aviation Digital Data Service (ADDS)

Output produced by METARs form (1857 UTC 19 August 2019)
found at http://www.aviationweather.gov/metar/data/
 
METAR text: EFOU 191850Z AUTO VRB02KT CAVOK 15/14 Q1005
Conditions at: EFOU (OULU/ULEABORG , FI) observed 1850 UTC 19 August 2019
Temperature: 15.0°C (59°F)
Dewpoint: 14.0°C (57°F) [RH = 94%]
Pressure (altimeter): 29.68 inches Hg (1005.0 mb)
Winds: variable direction winds at 2 MPH (2 knots; 1.0 m/s)
Visibility: 6 or more miles (10+ km)
Ceiling: ceiling and visibility are OK
Clouds: unknown
Weather: no significant weather observed at this time

METAR text: EFOU 191820Z AUTO VRB01KT CAVOK 15/14 Q1005
Conditions at: EFOU (OULU/ULEABORG , FI) observed 1820 UTC 19 August 2019
Temperature: 15.0°C (59°F)
Dewpoint: 14.0°C (57°F) [RH = 94%]
Pressure (altimeter): 29.68 inches Hg (1005.0 mb)
Winds: variable direction winds at 1 MPH (1 knots; 0.5 m/s)
Visibility: 6 or more miles (10+ km)
Ceiling: ceiling and visibility are OK
Clouds: unknown
Weather: no significant weather observed at this time

METAR text: EFOU 191750Z AUTO VRB02KT CAVOK 16/14 Q1004
Conditions at: EFOU (OULU/ULEABORG , FI) observed 1750 UTC 19 August 2019
Temperature: 16.0°C (61°F)
Dewpoint: 14.0°C (57°F) [RH = 88%]
Pressure (altimeter): 29.65 inches Hg (1004.0 mb)
Winds: variable direction winds at 2 MPH (2 knots; 1.0 m/s)
Visibility: 6 or more miles (10+ km)
Ceiling: ceiling and visibility are OK
Clouds: unknown
Weather: no significant weather observed at this time

METAR text: EFOU 191720Z AUTO 22003KT 180V240 CAVOK 16/14 Q1004
Conditions at: EFOU (OULU/ULEABORG , FI) observed 1720 UTC 19 August 2019
Temperature: 16.0°C (61°F)
Dewpoint: 14.0°C (57°F) [RH = 88%]
Pressure (altimeter): 29.65 inches Hg (1004.0 mb)
Winds: from the SW (220 degrees) at 3 MPH (3 knots; 1.5 m/s)
Visibility: 6 or more miles (10+ km)
Ceiling: ceiling and visibility are OK
Clouds: unknown
Weather: no significant weather observed at this time

METAR text: EFOU 191650Z AUTO 24008KT CAVOK 17/13 Q1004
Conditions at: EFOU (OULU/ULEABORG , FI) observed 1650 UTC 19 August 2019
Temperature: 17.0°C (63°F)
Dewpoint: 13.0°C (55°F) [RH = 77%]
Pressure (altimeter): 29.65 inches Hg (1004.0 mb)
Winds: from the WSW (240 degrees) at 9 MPH (8 knots; 4.1 m/s)
Visibility: 6 or more miles (10+ km)
Ceiling: ceiling and visibility are OK
Clouds: unknown
Weather: no significant weather observed at this time

METAR text: EFOU 191620Z AUTO 24009KT 9999 VCSH FEW028 SCT059 //////CB 17/14 Q1004
Conditions at: EFOU (OULU/ULEABORG , FI) observed 1620 UTC 19 August 2019
Temperature: 17.0°C (63°F)
Dewpoint: 14.0°C (57°F) [RH = 82%]
Pressure (altimeter): 29.65 inches Hg (1004.0 mb)
Winds: from the WSW (240 degrees) at 10 MPH (9 knots; 4.6 m/s)
Visibility: 6 or more miles (10+ km)
Ceiling: at least 12,000 feet AGL
Clouds: few clouds at 2800 feet AGL
scattered clouds at 5900 feet AGL
Weather: VCSH  (showers in vicinity)

METAR text: EFOU 191550Z AUTO 22005KT 200V260 9999 VCSH SCT019 //////CB 16/15 Q1003
Conditions at: EFOU (OULU/ULEABORG , FI) observed 1550 UTC 19 August 2019
Temperature: 16.0°C (61°F)
Dewpoint: 15.0°C (59°F) [RH = 94%]
Pressure (altimeter): 29.62 inches Hg (1003.0 mb)
Winds: from the SW (220 degrees) at 6 MPH (5 knots; 2.6 m/s)
Visibility: 6 or more miles (10+ km)
Ceiling: at least 12,000 feet AGL
Clouds: scattered clouds at 1900 feet AGL
Weather: VCSH  (showers in vicinity)

METAR text: EFOU 191520Z AUTO 23005KT 200V260 9999 -SHRA BKN032 //////CB 16/15 Q1003 RESHRA
Conditions at: EFOU (OULU/ULEABORG , FI) observed 1520 UTC 19 August 2019
Temperature: 16.0°C (61°F)
Dewpoint: 15.0°C (59°F) [RH = 94%]
Pressure (altimeter): 29.62 inches Hg (1003.0 mb)
Winds: from the SW (230 degrees) at 6 MPH (5 knots; 2.6 m/s)
Visibility: 6 or more miles (10+ km)
Ceiling: 3200 feet AGL
Clouds: broken clouds at 3200 feet AGL
Weather: -SHRA  (light rain showers)

METAR text: EFOU 191450Z AUTO 23006KT 200V280 9999 -SHRA OVC019 //////CB 15/14 Q1003 RESHRA
Conditions at: EFOU (OULU/ULEABORG , FI) observed 1450 UTC 19 August 2019
Temperature: 15.0°C (59°F)
Dewpoint: 14.0°C (57°F) [RH = 94%]
Pressure (altimeter): 29.62 inches Hg (1003.0 mb)
Winds: from the SW (230 degrees) at 7 MPH (6 knots; 3.1 m/s)
Visibility: 6 or more miles (10+ km)
Ceiling: 1900 feet AGL
Clouds: overcast cloud deck at 1900 feet AGL
Weather: -SHRA  (light rain showers)

METAR text: EFOU 191420Z AUTO 16013KT 9999 -SHRA BKN015 //////CB 17/15 Q1002
Conditions at: EFOU (OULU/ULEABORG , FI) observed 1420 UTC 19 August 2019
Temperature: 17.0°C (63°F)
Dewpoint: 15.0°C (59°F) [RH = 88%]
Pressure (altimeter): 29.59 inches Hg (1002.0 mb)
Winds: from the SSE (160 degrees) at 15 MPH (13 knots; 6.7 m/s)
Visibility: 6 or more miles (10+ km)
Ceiling: 1500 feet AGL
Clouds: broken clouds at 1500 feet AGL
Weather: -SHRA  (light rain showers)

METAR text: EFOU 191350Z AUTO 15014KT 9999 VCSH OVC012 //////CB 17/15 Q1001
Conditions at: EFOU (OULU/ULEABORG , FI) observed 1350 UTC 19 August 2019
Temperature: 17.0°C (63°F)
Dewpoint: 15.0°C (59°F) [RH = 88%]
Pressure (altimeter): 29.56 inches Hg (1001.0 mb)
Winds: from the SSE (150 degrees) at 16 MPH (14 knots; 7.2 m/s)
Visibility: 6 or more miles (10+ km)
Ceiling: 1200 feet AGL
Clouds: overcast cloud deck at 1200 feet AGL
Weather: VCSH  (showers in vicinity)

METAR text: EFOU 191320Z AUTO 16012KT 9999 OVC011 17/15 Q1002
Conditions at: EFOU (OULU/ULEABORG , FI) observed 1320 UTC 19 August 2019
Temperature: 17.0°C (63°F)
Dewpoint: 15.0°C (59°F) [RH = 88%]
Pressure (altimeter): 29.59 inches Hg (1002.0 mb)
Winds: from the SSE (160 degrees) at 14 MPH (12 knots; 6.2 m/s)
Visibility: 6 or more miles (10+ km)
Ceiling: 1100 feet AGL
Clouds: overcast cloud deck at 1100 feet AGL
Weather: no significant weather observed at this time

METAR text: EFOU 191250Z AUTO 16014KT 9999 OVC011 16/15 Q1001
Conditions at: EFOU (OULU/ULEABORG , FI) observed 1250 UTC 19 August 2019
Temperature: 16.0°C (61°F)
Dewpoint: 15.0°C (59°F) [RH = 94%]
Pressure (altimeter): 29.56 inches Hg (1001.0 mb)
Winds: from the SSE (160 degrees) at 16 MPH (14 knots; 7.2 m/s)
Visibility: 6 or more miles (10+ km)
Ceiling: 1100 feet AGL
Clouds: overcast cloud deck at 1100 feet AGL
Weather: no significant weather observed at this time

METAR text: EFOU 191220Z AUTO 15016KT 9999 OVC011 16/14 Q1001
Conditions at: EFOU (OULU/ULEABORG , FI) observed 1220 UTC 19 August 2019
Temperature: 16.0°C (61°F)
Dewpoint: 14.0°C (57°F) [RH = 88%]
Pressure (altimeter): 29.56 inches Hg (1001.0 mb)
Winds: from the SSE (150 degrees) at 18 MPH (16 knots; 8.2 m/s)
Visibility: 6 or more miles (10+ km)
Ceiling: 1100 feet AGL
Clouds: overcast cloud deck at 1100 feet AGL
Weather: no significant weather observed at this time

METAR text: EFOU 191150Z AUTO 15016KT 9999 OVC011 16/14 Q1001
Conditions at: EFOU (OULU/ULEABORG , FI) observed 1150 UTC 19 August 2019
Temperature: 16.0°C (61°F)
Dewpoint: 14.0°C (57°F) [RH = 88%]
Pressure (altimeter): 29.56 inches Hg (1001.0 mb)
Winds: from the SSE (150 degrees) at 18 MPH (16 knots; 8.2 m/s)
Visibility: 6 or more miles (10+ km)
Ceiling: 1100 feet AGL
Clouds: overcast cloud deck at 1100 feet AGL
Weather: no significant weather observed at this time

METAR text: EFOU 191120Z AUTO 15015KT 9999 VCSH OVC010 //////CB 15/14 Q1001
Conditions at: EFOU (OULU/ULEABORG , FI) observed 1120 UTC 19 August 2019
Temperature: 15.0°C (59°F)
Dewpoint: 14.0°C (57°F) [RH = 94%]
Pressure (altimeter): 29.56 inches Hg (1001.0 mb)
Winds: from the SSE (150 degrees) at 17 MPH (15 knots; 7.7 m/s)
Visibility: 6 or more miles (10+ km)
Ceiling: 1000 feet AGL
Clouds: overcast cloud deck at 1000 feet AGL
Weather: VCSH  (showers in vicinity)

METAR text: EFOU 191050Z AUTO 15015KT 9999 -SHRA OVC009 15/14 Q1001
Conditions at: EFOU (OULU/ULEABORG , FI) observed 1050 UTC 19 August 2019
Temperature: 15.0°C (59°F)
Dewpoint: 14.0°C (57°F) [RH = 94%]
Pressure (altimeter): 29.56 inches Hg (1001.0 mb)
Winds: from the SSE (150 degrees) at 17 MPH (15 knots; 7.7 m/s)
Visibility: 6 or more miles (10+ km)
Ceiling: 900 feet AGL
Clouds: overcast cloud deck at 900 feet AGL
Weather: -SHRA  (light rain showers)

METAR text: EFOU 191020Z AUTO 14017KT 6000 -SHRA OVC014 15/13 Q1001
Conditions at: EFOU (OULU/ULEABORG , FI) observed 1020 UTC 19 August 2019
Temperature: 15.0°C (59°F)
Dewpoint: 13.0°C (55°F) [RH = 88%]
Pressure (altimeter): 29.56 inches Hg (1001.0 mb)
Winds: from the SE (140 degrees) at 20 MPH (17 knots; 8.7 m/s)
Visibility: 4 miles ( 6 km)
Ceiling: 1400 feet AGL
Clouds: overcast cloud deck at 1400 feet AGL
Weather: -SHRA  (light rain showers)

METAR text: EFOU 190950Z AUTO 14016KT 6000 SHRA OVC025 //////CB 14/13 Q1001
Conditions at: EFOU (OULU/ULEABORG , FI) observed 0950 UTC 19 August 2019
Temperature: 14.0°C (57°F)
Dewpoint: 13.0°C (55°F) [RH = 94%]
Pressure (altimeter): 29.56 inches Hg (1001.0 mb)
Winds: from the SE (140 degrees) at 18 MPH (16 knots; 8.2 m/s)
Visibility: 4 miles ( 6 km)
Ceiling: 2500 feet AGL
Clouds: overcast cloud deck at 2500 feet AGL
Weather: SHRA  (rain showers)

METAR text: EFOU 190920Z AUTO 13017KT 9000 SHRA OVC036 //////CB 14/13 Q1001
Conditions at: EFOU (OULU/ULEABORG , FI) observed 0920 UTC 19 August 2019
Temperature: 14.0°C (57°F)
Dewpoint: 13.0°C (55°F) [RH = 94%]
Pressure (altimeter): 29.56 inches Hg (1001.0 mb)
Winds: from the SE (130 degrees) at 20 MPH (17 knots; 8.7 m/s)
Visibility: 6 miles ( 9 km)
Ceiling: 3600 feet AGL
Clouds: overcast cloud deck at 3600 feet AGL
Weather: SHRA  (rain showers)

METAR text: EFOU 190850Z AUTO 13017KT 8000 -SHRA NSC 14/12 Q1002
Conditions at: EFOU (OULU/ULEABORG , FI) observed 0850 UTC 19 August 2019
Temperature: 14.0°C (57°F)
Dewpoint: 12.0°C (54°F) [RH = 88%]
Pressure (altimeter): 29.59 inches Hg (1002.0 mb)
Winds: from the SE (130 degrees) at 20 MPH (17 knots; 8.7 m/s)
Visibility: 5 miles ( 8 km)
Ceiling: at least 12,000 feet AGL
Clouds: sky clear below 12,000 feet AGL
Weather: -SHRA  (light rain showers)

METAR text: EFOU 190820Z AUTO 13017KT CAVOK 14/12 Q1002
Conditions at: EFOU (OULU/ULEABORG , FI) observed 0820 UTC 19 August 2019
Temperature: 14.0°C (57°F)
Dewpoint: 12.0°C (54°F) [RH = 88%]
Pressure (altimeter): 29.59 inches Hg (1002.0 mb)
Winds: from the SE (130 degrees) at 20 MPH (17 knots; 8.7 m/s)
Visibility: 6 or more miles (10+ km)
Ceiling: ceiling and visibility are OK
Clouds: unknown
Weather: no significant weather observed at this time

METAR text: EFOU 190750Z AUTO 13013KT 9999 -SHRA OVC066 //////CB 14/12 Q1003
Conditions at: EFOU (OULU/ULEABORG , FI) observed 0750 UTC 19 August 2019
Temperature: 14.0°C (57°F)
Dewpoint: 12.0°C (54°F) [RH = 88%]
Pressure (altimeter): 29.62 inches Hg (1003.0 mb)
Winds: from the SE (130 degrees) at 15 MPH (13 knots; 6.7 m/s)
Visibility: 6 or more miles (10+ km)
Ceiling: 6600 feet AGL
Clouds: overcast cloud deck at 6600 feet AGL
Weather: -SHRA  (light rain showers)

METAR text: EFOU 190720Z AUTO 12012KT 9999 -RA NSC 14/12 Q1003
Conditions at: EFOU (OULU/ULEABORG , FI) observed 0720 UTC 19 August 2019
Temperature: 14.0°C (57°F)
Dewpoint: 12.0°C (54°F) [RH = 88%]
Pressure (altimeter): 29.62 inches Hg (1003.0 mb)
Winds: from the ESE (120 degrees) at 14 MPH (12 knots; 6.2 m/s)
Visibility: 6 or more miles (10+ km)
Ceiling: at least 12,000 feet AGL
Clouds: sky clear below 12,000 feet AGL
Weather: -RA  (light rain)

METAR text: EFOU 190650Z AUTO 12011KT 9999 -SHRA NSC 14/12 Q1004
Conditions at: EFOU (OULU/ULEABORG , FI) observed 0650 UTC 19 August 2019
Temperature: 14.0°C (57°F)
Dewpoint: 12.0°C (54°F) [RH = 88%]
Pressure (altimeter): 29.65 inches Hg (1004.0 mb)
Winds: from the ESE (120 degrees) at 13 MPH (11 knots; 5.7 m/s)
Visibility: 6 or more miles (10+ km)
Ceiling: at least 12,000 feet AGL
Clouds: sky clear below 12,000 feet AGL
Weather: -SHRA  (light rain showers)

METAR text: EFOU 190620Z AUTO 13011KT 9999 -SHRA OVC045 //////CB 14/12 Q1004
Conditions at: EFOU (OULU/ULEABORG , FI) observed 0620 UTC 19 August 2019
Temperature: 14.0°C (57°F)
Dewpoint: 12.0°C (54°F) [RH = 88%]
Pressure (altimeter): 29.65 inches Hg (1004.0 mb)
Winds: from the SE (130 degrees) at 13 MPH (11 knots; 5.7 m/s)
Visibility: 6 or more miles (10+ km)
Ceiling: 4500 feet AGL
Clouds: overcast cloud deck at 4500 feet AGL
Weather: -SHRA  (light rain showers)

METAR text: EFOU 190550Z AUTO 12012KT 9999 VCSH OVC038 //////CB 14/11 Q1004
Conditions at: EFOU (OULU/ULEABORG , FI) observed 0550 UTC 19 August 2019
Temperature: 14.0°C (57°F)
Dewpoint: 11.0°C (52°F) [RH = 82%]
Pressure (altimeter): 29.65 inches Hg (1004.0 mb)
Winds: from the ESE (120 degrees) at 14 MPH (12 knots; 6.2 m/s)
Visibility: 6 or more miles (10+ km)
Ceiling: 3800 feet AGL
Clouds: overcast cloud deck at 3800 feet AGL
Weather: VCSH  (showers in vicinity)

METAR text: EFOU 190520Z AUTO 13012KT 9999 -SHRA OVC036 14/11 Q1005
Conditions at: EFOU (OULU/ULEABORG , FI) observed 0520 UTC 19 August 2019
Temperature: 14.0°C (57°F)
Dewpoint: 11.0°C (52°F) [RH = 82%]
Pressure (altimeter): 29.68 inches Hg (1005.0 mb)
Winds: from the SE (130 degrees) at 14 MPH (12 knots; 6.2 m/s)
Visibility: 6 or more miles (10+ km)
Ceiling: 3600 feet AGL
Clouds: overcast cloud deck at 3600 feet AGL
Weather: -SHRA  (light rain showers)

METAR text: EFOU 190450Z AUTO 13013KT 9999 -SHRA OVC048 14/10 Q1005
Conditions at: EFOU (OULU/ULEABORG , FI) observed 0450 UTC 19 August 2019
Temperature: 14.0°C (57°F)
Dewpoint: 10.0°C (50°F) [RH = 77%]
Pressure (altimeter): 29.68 inches Hg (1005.0 mb)
Winds: from the SE (130 degrees) at 15 MPH (13 knots; 6.7 m/s)
Visibility: 6 or more miles (10+ km)
Ceiling: 4800 feet AGL
Clouds: overcast cloud deck at 4800 feet AGL
Weather: -SHRA  (light rain showers)

METAR text: EFOU 190420Z AUTO 13012KT 9999 -SHRA NSC 14/10 Q1005
Conditions at: EFOU (OULU/ULEABORG , FI) observed 0420 UTC 19 August 2019
Temperature: 14.0°C (57°F)
Dewpoint: 10.0°C (50°F) [RH = 77%]
Pressure (altimeter): 29.68 inches Hg (1005.0 mb)
Winds: from the SE (130 degrees) at 14 MPH (12 knots; 6.2 m/s)
Visibility: 6 or more miles (10+ km)
Ceiling: at least 12,000 feet AGL
Clouds: sky clear below 12,000 feet AGL
Weather: -SHRA  (light rain showers)

METAR text: EFOU 190350Z AUTO 12011KT CAVOK 14/10 Q1005
Conditions at: EFOU (OULU/ULEABORG , FI) observed 0350 UTC 19 August 2019
Temperature: 14.0°C (57°F)
Dewpoint: 10.0°C (50°F) [RH = 77%]
Pressure (altimeter): 29.68 inches Hg (1005.0 mb)
Winds: from the ESE (120 degrees) at 13 MPH (11 knots; 5.7 m/s)
Visibility: 6 or more miles (10+ km)
Ceiling: ceiling and visibility are OK
Clouds: unknown
Weather: no significant weather observed at this time

METAR text: EFOU 190320Z AUTO 11011KT 9999 BKN044 OVC091 14/10 Q1006
Conditions at: EFOU (OULU/ULEABORG , FI) observed 0320 UTC 19 August 2019
Temperature: 14.0°C (57°F)
Dewpoint: 10.0°C (50°F) [RH = 77%]
Pressure (altimeter): 29.70 inches Hg (1006.0 mb)
Winds: from the ESE (110 degrees) at 13 MPH (11 knots; 5.7 m/s)
Visibility: 6 or more miles (10+ km)
Ceiling: 4400 feet AGL
Clouds: broken clouds at 4400 feet AGL
overcast cloud deck at 9100 feet AGL
Weather: no significant weather observed at this time

METAR text: EFOU 190250Z AUTO 11009KT 9999 VCSH BKN043 BKN092 //////CB 14/10 Q1006
Conditions at: EFOU (OULU/ULEABORG , FI) observed 0250 UTC 19 August 2019
Temperature: 14.0°C (57°F)
Dewpoint: 10.0°C (50°F) [RH = 77%]
Pressure (altimeter): 29.70 inches Hg (1006.0 mb)
Winds: from the ESE (110 degrees) at 10 MPH (9 knots; 4.6 m/s)
Visibility: 6 or more miles (10+ km)
Ceiling: 4300 feet AGL
Clouds: broken clouds at 4300 feet AGL
broken clouds at 9200 feet AGL
Weather: VCSH  (showers in vicinity)

METAR text: EFOU 190220Z AUTO 13008KT 9999 SHRA OVC049 //////CB 13/11 Q1006
Conditions at: EFOU (OULU/ULEABORG , FI) observed 0220 UTC 19 August 2019
Temperature: 13.0°C (55°F)
Dewpoint: 11.0°C (52°F) [RH = 88%]
Pressure (altimeter): 29.70 inches Hg (1006.0 mb)
Winds: from the SE (130 degrees) at 9 MPH (8 knots; 4.1 m/s)
Visibility: 6 or more miles (10+ km)
Ceiling: 4900 feet AGL
Clouds: overcast cloud deck at 4900 feet AGL
Weather: SHRA  (rain showers)

METAR text: EFOU 190150Z AUTO 12009KT 9999 -SHRA OVC054 //////CB 13/11 Q1007
Conditions at: EFOU (OULU/ULEABORG , FI) observed 0150 UTC 19 August 2019
Temperature: 13.0°C (55°F)
Dewpoint: 11.0°C (52°F) [RH = 88%]
Pressure (altimeter): 29.73 inches Hg (1007.0 mb)
Winds: from the ESE (120 degrees) at 10 MPH (9 knots; 4.6 m/s)
Visibility: 6 or more miles (10+ km)
Ceiling: 5400 feet AGL
Clouds: overcast cloud deck at 5400 feet AGL
Weather: -SHRA  (light rain showers)

METAR text: EFOU 190120Z AUTO 12009KT 9999 -SHRA NSC 14/11 Q1007
Conditions at: EFOU (OULU/ULEABORG , FI) observed 0120 UTC 19 August 2019
Temperature: 14.0°C (57°F)
Dewpoint: 11.0°C (52°F) [RH = 82%]
Pressure (altimeter): 29.73 inches Hg (1007.0 mb)
Winds: from the ESE (120 degrees) at 10 MPH (9 knots; 4.6 m/s)
Visibility: 6 or more miles (10+ km)
Ceiling: at least 12,000 feet AGL
Clouds: sky clear below 12,000 feet AGL
Weather: -SHRA  (light rain showers)

METAR text: EFOU 190050Z AUTO 12008KT 9999 -SHRA NSC 14/11 Q1007
Conditions at: EFOU (OULU/ULEABORG , FI) observed 0050 UTC 19 August 2019
Temperature: 14.0°C (57°F)
Dewpoint: 11.0°C (52°F) [RH = 82%]
Pressure (altimeter): 29.73 inches Hg (1007.0 mb)
Winds: from the ESE (120 degrees) at 9 MPH (8 knots; 4.1 m/s)
Visibility: 6 or more miles (10+ km)
Ceiling: at least 12,000 feet AGL
Clouds: sky clear below 12,000 feet AGL
Weather: -SHRA  (light rain showers)

METAR text: EFOU 190020Z AUTO 12009KT 9999 -SHRA NSC 14/11 Q1008
Conditions at: EFOU (OULU/ULEABORG , FI) observed 0020 UTC 19 August 2019
Temperature: 14.0°C (57°F)
Dewpoint: 11.0°C (52°F) [RH = 82%]
Pressure (altimeter): 29.76 inches Hg (1008.0 mb)
Winds: from the ESE (120 degrees) at 10 MPH (9 knots; 4.6 m/s)
Visibility: 6 or more miles (10+ km)
Ceiling: at least 12,000 feet AGL
Clouds: sky clear below 12,000 feet AGL
Weather: -SHRA  (light rain showers)

METAR text: EFOU 182350Z AUTO 12008KT 9999 -RA NSC 14/11 Q1008
Conditions at: EFOU (OULU/ULEABORG , FI) observed 2350 UTC 18 August 2019
Temperature: 14.0°C (57°F)
Dewpoint: 11.0°C (52°F) [RH = 82%]
Pressure (altimeter): 29.76 inches Hg (1008.0 mb)
Winds: from the ESE (120 degrees) at 9 MPH (8 knots; 4.1 m/s)
Visibility: 6 or more miles (10+ km)
Ceiling: at least 12,000 feet AGL
Clouds: sky clear below 12,000 feet AGL
Weather: -RA  (light rain)

METAR text: EFOU 182320Z AUTO 11008KT CAVOK 14/11 Q1008
Conditions at: EFOU (OULU/ULEABORG , FI) observed 2320 UTC 18 August 2019
Temperature: 14.0°C (57°F)
Dewpoint: 11.0°C (52°F) [RH = 82%]
Pressure (altimeter): 29.76 inches Hg (1008.0 mb)
Winds: from the ESE (110 degrees) at 9 MPH (8 knots; 4.1 m/s)
Visibility: 6 or more miles (10+ km)
Ceiling: ceiling and visibility are OK
Clouds: unknown
Weather: no significant weather observed at this time

METAR text: EFOU 182250Z AUTO 12007KT CAVOK 14/12 Q1008
Conditions at: EFOU (OULU/ULEABORG , FI) observed 2250 UTC 18 August 2019
Temperature: 14.0°C (57°F)
Dewpoint: 12.0°C (54°F) [RH = 88%]
Pressure (altimeter): 29.76 inches Hg (1008.0 mb)
Winds: from the ESE (120 degrees) at 8 MPH (7 knots; 3.6 m/s)
Visibility: 6 or more miles (10+ km)
Ceiling: ceiling and visibility are OK
Clouds: unknown
Weather: no significant weather observed at this time

METAR text: EFOU 182220Z AUTO 13007KT CAVOK 14/13 Q1009
Conditions at: EFOU (OULU/ULEABORG , FI) observed 2220 UTC 18 August 2019
Temperature: 14.0°C (57°F)
Dewpoint: 13.0°C (55°F) [RH = 94%]
Pressure (altimeter): 29.79 inches Hg (1009.0 mb)
Winds: from the SE (130 degrees) at 8 MPH (7 knots; 3.6 m/s)
Visibility: 6 or more miles (10+ km)
Ceiling: ceiling and visibility are OK
Clouds: unknown
Weather: no significant weather observed at this time

METAR text: EFOU 182150Z AUTO 13008KT CAVOK 15/13 Q1009
Conditions at: EFOU (OULU/ULEABORG , FI) observed 2150 UTC 18 August 2019
Temperature: 15.0°C (59°F)
Dewpoint: 13.0°C (55°F) [RH = 88%]
Pressure (altimeter): 29.79 inches Hg (1009.0 mb)
Winds: from the SE (130 degrees) at 9 MPH (8 knots; 4.1 m/s)
Visibility: 6 or more miles (10+ km)
Ceiling: ceiling and visibility are OK
Clouds: unknown
Weather: no significant weather observed at this time

METAR text: EFOU 182120Z AUTO 14007KT 9999 -RA NSC 15/13 Q1009
Conditions at: EFOU (OULU/ULEABORG , FI) observed 2120 UTC 18 August 2019
Temperature: 15.0°C (59°F)
Dewpoint: 13.0°C (55°F) [RH = 88%]
Pressure (altimeter): 29.79 inches Hg (1009.0 mb)
Winds: from the SE (140 degrees) at 8 MPH (7 knots; 3.6 m/s)
Visibility: 6 or more miles (10+ km)
Ceiling: at least 12,000 feet AGL
Clouds: sky clear below 12,000 feet AGL
Weather: -RA  (light rain)

METAR text: EFOU 182050Z AUTO 14007KT CAVOK 15/13 Q1009
Conditions at: EFOU (OULU/ULEABORG , FI) observed 2050 UTC 18 August 2019
Temperature: 15.0°C (59°F)
Dewpoint: 13.0°C (55°F) [RH = 88%]
Pressure (altimeter): 29.79 inches Hg (1009.0 mb)
Winds: from the SE (140 degrees) at 8 MPH (7 knots; 3.6 m/s)
Visibility: 6 or more miles (10+ km)
Ceiling: ceiling and visibility are OK
Clouds: unknown
Weather: no significant weather observed at this time

METAR text: EFOU 182020Z AUTO 11007KT CAVOK 15/13 Q1009
Conditions at: EFOU (OULU/ULEABORG , FI) observed 2020 UTC 18 August 2019
Temperature: 15.0°C (59°F)
Dewpoint: 13.0°C (55°F) [RH = 88%]
Pressure (altimeter): 29.79 inches Hg (1009.0 mb)
Winds: from the ESE (110 degrees) at 8 MPH (7 knots; 3.6 m/s)
Visibility: 6 or more miles (10+ km)
Ceiling: ceiling and visibility are OK
Clouds: unknown
Weather: no significant weather observed at this time

METAR text: EFOU 181950Z AUTO 11006KT 9999 -SHRA OVC056 //////CB 15/14 Q1009
Conditions at: EFOU (OULU/ULEABORG , FI) observed 1950 UTC 18 August 2019
Temperature: 15.0°C (59°F)
Dewpoint: 14.0°C (57°F) [RH = 94%]
Pressure (altimeter): 29.79 inches Hg (1009.0 mb)
Winds: from the ESE (110 degrees) at 7 MPH (6 knots; 3.1 m/s)
Visibility: 6 or more miles (10+ km)
Ceiling: 5600 feet AGL
Clouds: overcast cloud deck at 5600 feet AGL
Weather: -SHRA  (light rain showers)

METAR text: EFOU 181920Z AUTO 15007KT 9999 SHRA OVC060 //////CB 15/13 Q1010
Conditions at: EFOU (OULU/ULEABORG , FI) observed 1920 UTC 18 August 2019
Temperature: 15.0°C (59°F)
Dewpoint: 13.0°C (55°F) [RH = 88%]
Pressure (altimeter): 29.82 inches Hg (1010.0 mb)
Winds: from the SSE (150 degrees) at 8 MPH (7 knots; 3.6 m/s)
Visibility: 6 or more miles (10+ km)
Ceiling: 6000 feet AGL
Clouds: overcast cloud deck at 6000 feet AGL
Weather: SHRA  (rain showers)

METAR text: EFOU 181850Z AUTO 13006KT 9999 -SHRA FEW057 OVC083 //////CB 15/14 Q1010 RESHRA
Conditions at: EFOU (OULU/ULEABORG , FI) observed 1850 UTC 18 August 2019
Temperature: 15.0°C (59°F)
Dewpoint: 14.0°C (57°F) [RH = 94%]
Pressure (altimeter): 29.82 inches Hg (1010.0 mb)
Winds: from the SE (130 degrees) at 7 MPH (6 knots; 3.1 m/s)
Visibility: 6 or more miles (10+ km)
Ceiling: 8300 feet AGL
Clouds: few clouds at 5700 feet AGL
overcast cloud deck at 8300 feet AGL
Weather: -SHRA  (light rain showers)

METAR text: EFOU 181820Z AUTO 13006KT 9999 -SHRA OVC065 //////CB 15/14 Q1010
Conditions at: EFOU (OULU/ULEABORG , FI) observed 1820 UTC 18 August 2019
Temperature: 15.0°C (59°F)
Dewpoint: 14.0°C (57°F) [RH = 94%]
Pressure (altimeter): 29.82 inches Hg (1010.0 mb)
Winds: from the SE (130 degrees) at 7 MPH (6 knots; 3.1 m/s)
Visibility: 6 or more miles (10+ km)
Ceiling: 6500 feet AGL
Clouds: overcast cloud deck at 6500 feet AGL
Weather: -SHRA  (light rain showers)

METAR text: EFOU 181750Z AUTO 14007KT 9999 -SHRA OVC051 //////CB 15/14 Q1010 RESHRA
Conditions at: EFOU (OULU/ULEABORG , FI) observed 1750 UTC 18 August 2019
Temperature: 15.0°C (59°F)
Dewpoint: 14.0°C (57°F) [RH = 94%]
Pressure (altimeter): 29.82 inches Hg (1010.0 mb)
Winds: from the SE (140 degrees) at 8 MPH (7 knots; 3.6 m/s)
Visibility: 6 or more miles (10+ km)
Ceiling: 5100 feet AGL
Clouds: overcast cloud deck at 5100 feet AGL
Weather: -SHRA  (light rain showers)

METAR text: EFOU 181720Z AUTO 18005KT 140V210 9999 -SHRA FEW051 OVC082 //////CB 16/13 Q1010
Conditions at: EFOU (OULU/ULEABORG , FI) observed 1720 UTC 18 August 2019
Temperature: 16.0°C (61°F)
Dewpoint: 13.0°C (55°F) [RH = 82%]
Pressure (altimeter): 29.82 inches Hg (1010.0 mb)
Winds: from the S (180 degrees) at 6 MPH (5 knots; 2.6 m/s)
Visibility: 6 or more miles (10+ km)
Ceiling: 8200 feet AGL
Clouds: few clouds at 5100 feet AGL
overcast cloud deck at 8200 feet AGL
Weather: -SHRA  (light rain showers)

METAR text: EFOU 181650Z AUTO 16006KT 9999 -RA BKN047 OVC080 16/13 Q1010
Conditions at: EFOU (OULU/ULEABORG , FI) observed 1650 UTC 18 August 2019
Temperature: 16.0°C (61°F)
Dewpoint: 13.0°C (55°F) [RH = 82%]
Pressure (altimeter): 29.82 inches Hg (1010.0 mb)
Winds: from the SSE (160 degrees) at 7 MPH (6 knots; 3.1 m/s)
Visibility: 6 or more miles (10+ km)
Ceiling: 4700 feet AGL
Clouds: broken clouds at 4700 feet AGL
overcast cloud deck at 8000 feet AGL
Weather: -RA  (light rain)

METAR text: EFOU 181620Z AUTO 16007KT 9999 -SHRA FEW046 OVC080 16/13 Q1010
Conditions at: EFOU (OULU/ULEABORG , FI) observed 1620 UTC 18 August 2019
Temperature: 16.0°C (61°F)
Dewpoint: 13.0°C (55°F) [RH = 82%]
Pressure (altimeter): 29.82 inches Hg (1010.0 mb)
Winds: from the SSE (160 degrees) at 8 MPH (7 knots; 3.6 m/s)
Visibility: 6 or more miles (10+ km)
Ceiling: 8000 feet AGL
Clouds: few clouds at 4600 feet AGL
overcast cloud deck at 8000 feet AGL
Weather: -SHRA  (light rain showers)

METAR text: EFOU 181550Z AUTO 16007KT 9999 -SHRA FEW046 OVC076 16/14 Q1010
Conditions at: EFOU (OULU/ULEABORG , FI) observed 1550 UTC 18 August 2019
Temperature: 16.0°C (61°F)
Dewpoint: 14.0°C (57°F) [RH = 88%]
Pressure (altimeter): 29.82 inches Hg (1010.0 mb)
Winds: from the SSE (160 degrees) at 8 MPH (7 knots; 3.6 m/s)
Visibility: 6 or more miles (10+ km)
Ceiling: 7600 feet AGL
Clouds: few clouds at 4600 feet AGL
overcast cloud deck at 7600 feet AGL
Weather: -SHRA  (light rain showers)

METAR text: EFOU 181520Z AUTO 16006KT 9999 -SHRA OVC078 //////CB 16/14 Q1010
Conditions at: EFOU (OULU/ULEABORG , FI) observed 1520 UTC 18 August 2019
Temperature: 16.0°C (61°F)
Dewpoint: 14.0°C (57°F) [RH = 88%]
Pressure (altimeter): 29.82 inches Hg (1010.0 mb)
Winds: from the SSE (160 degrees) at 7 MPH (6 knots; 3.1 m/s)
Visibility: 6 or more miles (10+ km)
Ceiling: 7800 feet AGL
Clouds: overcast cloud deck at 7800 feet AGL
Weather: -SHRA  (light rain showers)

METAR text: EFOU 181450Z AUTO 18006KT 090V210 9999 SHRA OVC054 //////CB 16/14 Q1010
Conditions at: EFOU (OULU/ULEABORG , FI) observed 1450 UTC 18 August 2019
Temperature: 16.0°C (61°F)
Dewpoint: 14.0°C (57°F) [RH = 88%]
Pressure (altimeter): 29.82 inches Hg (1010.0 mb)
Winds: from the S (180 degrees) at 7 MPH (6 knots; 3.1 m/s)
Visibility: 6 or more miles (10+ km)
Ceiling: 5400 feet AGL
Clouds: overcast cloud deck at 5400 feet AGL
Weather: SHRA  (rain showers)

METAR text: EFOU 181420Z AUTO 18009KT 150V210 9999 -SHRA SCT044 BKN059 OVC081 //////CB 17/14 Q1010 RESHRA
Conditions at: EFOU (OULU/ULEABORG , FI) observed 1420 UTC 18 August 2019
Temperature: 17.0°C (63°F)
Dewpoint: 14.0°C (57°F) [RH = 82%]
Pressure (altimeter): 29.82 inches Hg (1010.0 mb)
Winds: from the S (180 degrees) at 10 MPH (9 knots; 4.6 m/s)
Visibility: 6 or more miles (10+ km)
Ceiling: 5900 feet AGL
Clouds: scattered clouds at 4400 feet AGL
broken clouds at 5900 feet AGL
overcast cloud deck at 8100 feet AGL
Weather: -SHRA  (light rain showers)

METAR text: EFOU 181350Z AUTO 21007KT 180V240 9999 -SHRA BKN045 //////CB 17/14 Q1010
Conditions at: EFOU (OULU/ULEABORG , FI) observed 1350 UTC 18 August 2019
Temperature: 17.0°C (63°F)
Dewpoint: 14.0°C (57°F) [RH = 82%]
Pressure (altimeter): 29.82 inches Hg (1010.0 mb)
Winds: from the SSW (210 degrees) at 8 MPH (7 knots; 3.6 m/s)
Visibility: 6 or more miles (10+ km)
Ceiling: 4500 feet AGL
Clouds: broken clouds at 4500 feet AGL
Weather: -SHRA  (light rain showers)

METAR text: EFOU 181320Z AUTO 23008KT 180V260 9000 SHRA FEW033 BKN045 OVC056 //////CB 17/15 Q1010
Conditions at: EFOU (OULU/ULEABORG , FI) observed 1320 UTC 18 August 2019
Temperature: 17.0°C (63°F)
Dewpoint: 15.0°C (59°F) [RH = 88%]
Pressure (altimeter): 29.82 inches Hg (1010.0 mb)
Winds: from the SW (230 degrees) at 9 MPH (8 knots; 4.1 m/s)
Visibility: 6 miles ( 9 km)
Ceiling: 4500 feet AGL
Clouds: few clouds at 3300 feet AGL
broken clouds at 4500 feet AGL
overcast cloud deck at 5600 feet AGL
Weather: SHRA  (rain showers)

METAR text: EFOU 181250Z AUTO 20005KT 160V240 9999 -SHRA BKN050 //////CB 19/15 Q1009
Conditions at: EFOU (OULU/ULEABORG , FI) observed 1250 UTC 18 August 2019
Temperature: 19.0°C (66°F)
Dewpoint: 15.0°C (59°F) [RH = 78%]
Pressure (altimeter): 29.79 inches Hg (1009.0 mb)
Winds: from the SSW (200 degrees) at 6 MPH (5 knots; 2.6 m/s)
Visibility: 6 or more miles (10+ km)
Ceiling: 5000 feet AGL
Clouds: broken clouds at 5000 feet AGL
Weather: -SHRA  (light rain showers)

METAR text: EFOU 181220Z AUTO 18005KT 140V220 9999 -SHRA FEW048 BKN080 //////CB 19/14 Q1009
Conditions at: EFOU (OULU/ULEABORG , FI) observed 1220 UTC 18 August 2019
Temperature: 19.0°C (66°F)
Dewpoint: 14.0°C (57°F) [RH = 73%]
Pressure (altimeter): 29.79 inches Hg (1009.0 mb)
Winds: from the S (180 degrees) at 6 MPH (5 knots; 2.6 m/s)
Visibility: 6 or more miles (10+ km)
Ceiling: 8000 feet AGL
Clouds: few clouds at 4800 feet AGL
broken clouds at 8000 feet AGL
Weather: -SHRA  (light rain showers)

METAR text: EFOU 181150Z AUTO 22007KT 9999 -SHRA BKN072 //////CB 20/14 Q1009
Conditions at: EFOU (OULU/ULEABORG , FI) observed 1150 UTC 18 August 2019
Temperature: 20.0°C (68°F)
Dewpoint: 14.0°C (57°F) [RH = 68%]
Pressure (altimeter): 29.79 inches Hg (1009.0 mb)
Winds: from the SW (220 degrees) at 8 MPH (7 knots; 3.6 m/s)
Visibility: 6 or more miles (10+ km)
Ceiling: 7200 feet AGL
Clouds: broken clouds at 7200 feet AGL
Weather: -SHRA  (light rain showers)

METAR text: EFOU 181120Z AUTO 21007KT 170V230 9999 VCSH FEW063 //////CB 21/13 Q1009
Conditions at: EFOU (OULU/ULEABORG , FI) observed 1120 UTC 18 August 2019
Temperature: 21.0°C (70°F)
Dewpoint: 13.0°C (55°F) [RH = 60%]
Pressure (altimeter): 29.79 inches Hg (1009.0 mb)
Winds: from the SSW (210 degrees) at 8 MPH (7 knots; 3.6 m/s)
Visibility: 6 or more miles (10+ km)
Ceiling: at least 12,000 feet AGL
Clouds: few clouds at 6300 feet AGL
Weather: VCSH  (showers in vicinity)

METAR text: EFOU 181050Z AUTO 19007KT 160V220 CAVOK 21/13 Q1010
Conditions at: EFOU (OULU/ULEABORG , FI) observed 1050 UTC 18 August 2019
Temperature: 21.0°C (70°F)
Dewpoint: 13.0°C (55°F) [RH = 60%]
Pressure (altimeter): 29.82 inches Hg (1010.0 mb)
Winds: from the S (190 degrees) at 8 MPH (7 knots; 3.6 m/s)
Visibility: 6 or more miles (10+ km)
Ceiling: ceiling and visibility are OK
Clouds: unknown
Weather: no significant weather observed at this time

METAR text: EFOU 181020Z AUTO 16007KT CAVOK 20/13 Q1010
Conditions at: EFOU (OULU/ULEABORG , FI) observed 1020 UTC 18 August 2019
Temperature: 20.0°C (68°F)
Dewpoint: 13.0°C (55°F) [RH = 64%]
Pressure (altimeter): 29.82 inches Hg (1010.0 mb)
Winds: from the SSE (160 degrees) at 8 MPH (7 knots; 3.6 m/s)
Visibility: 6 or more miles (10+ km)
Ceiling: ceiling and visibility are OK
Clouds: unknown
Weather: no significant weather observed at this time

METAR text: EFOU 180950Z AUTO 16010KT CAVOK 19/13 Q1010
Conditions at: EFOU (OULU/ULEABORG , FI) observed 0950 UTC 18 August 2019
Temperature: 19.0°C (66°F)
Dewpoint: 13.0°C (55°F) [RH = 68%]
Pressure (altimeter): 29.82 inches Hg (1010.0 mb)
Winds: from the SSE (160 degrees) at 12 MPH (10 knots; 5.1 m/s)
Visibility: 6 or more miles (10+ km)
Ceiling: ceiling and visibility are OK
Clouds: unknown
Weather: no significant weather observed at this time

METAR text: EFOU 180920Z AUTO 15012KT CAVOK 19/13 Q1010
Conditions at: EFOU (OULU/ULEABORG , FI) observed 0920 UTC 18 August 2019
Temperature: 19.0°C (66°F)
Dewpoint: 13.0°C (55°F) [RH = 68%]
Pressure (altimeter): 29.82 inches Hg (1010.0 mb)
Winds: from the SSE (150 degrees) at 14 MPH (12 knots; 6.2 m/s)
Visibility: 6 or more miles (10+ km)
Ceiling: ceiling and visibility are OK
Clouds: unknown
Weather: no significant weather observed at this time

METAR text: EFOU 180850Z AUTO 16010KT CAVOK 18/13 Q1010
Conditions at: EFOU (OULU/ULEABORG , FI) observed 0850 UTC 18 August 2019
Temperature: 18.0°C (64°F)
Dewpoint: 13.0°C (55°F) [RH = 73%]
Pressure (altimeter): 29.82 inches Hg (1010.0 mb)
Winds: from the SSE (160 degrees) at 12 MPH (10 knots; 5.1 m/s)
Visibility: 6 or more miles (10+ km)
Ceiling: ceiling and visibility are OK
Clouds: unknown
Weather: no significant weather observed at this time

METAR text: EFOU 180820Z AUTO 16013KT CAVOK 18/13 Q1010
Conditions at: EFOU (OULU/ULEABORG , FI) observed 0820 UTC 18 August 2019
Temperature: 18.0°C (64°F)
Dewpoint: 13.0°C (55°F) [RH = 73%]
Pressure (altimeter): 29.82 inches Hg (1010.0 mb)
Winds: from the SSE (160 degrees) at 15 MPH (13 knots; 6.7 m/s)
Visibility: 6 or more miles (10+ km)
Ceiling: ceiling and visibility are OK
Clouds: unknown
Weather: no significant weather observed at this time

METAR text: EFOU 180750Z AUTO 15013KT CAVOK 18/13 Q1010
Conditions at: EFOU (OULU/ULEABORG , FI) observed 0750 UTC 18 August 2019
Temperature: 18.0°C (64°F)
Dewpoint: 13.0°C (55°F) [RH = 73%]
Pressure (altimeter): 29.82 inches Hg (1010.0 mb)
Winds: from the SSE (150 degrees) at 15 MPH (13 knots; 6.7 m/s)
Visibility: 6 or more miles (10+ km)
Ceiling: ceiling and visibility are OK
Clouds: unknown
Weather: no significant weather observed at this time

METAR text: EFOU 180720Z AUTO 15011KT CAVOK 18/13 Q1010
Conditions at: EFOU (OULU/ULEABORG , FI) observed 0720 UTC 18 August 2019
Temperature: 18.0°C (64°F)
Dewpoint: 13.0°C (55°F) [RH = 73%]
Pressure (altimeter): 29.82 inches Hg (1010.0 mb)
Winds: from the SSE (150 degrees) at 13 MPH (11 knots; 5.7 m/s)
Visibility: 6 or more miles (10+ km)
Ceiling: ceiling and visibility are OK
Clouds: unknown
Weather: no significant weather observed at this time

Forecast for: EFOU (OULU/ULEABORG , FI)
Text: TAF EFOU 191728Z 1918/2018 21007KT 9999 BKN030
Forecast period: 1800 UTC 19 August 2019 to 1800 UTC 20 August 2019
Forecast type: FROM: standard forecast or significant change
Winds: from the SSW (210 degrees) at 8 MPH (7 knots; 3.6 m/s)
Visibility: 6 or more miles 10+ km)
Ceiling: 3000 feet AGL
Clouds: broken clouds at 3000 feet AGL
Weather: no significant weather forecast for this period
Text: TEMPO 2015/2018 SHRA SCT030CB
Forecast period: 1500 to 1800 UTC 20 August 2019
Forecast type: TEMPORARY: The following changes expected for less than half the time period
Visibility: missing
Ceiling: at least 12,000 feet AGL
Clouds: scattered clouds at 3000 feet AGL
Weather: SHRA  (rain showers)
Text: PROB30 2015/2018 7000 TS
Forecast period: 1500 to 1800 UTC 20 August 2019
Forecast type: PROBABLE: 30 percent likelihood of the following during this time
Visibility: 4 miles (7 km)
Ceiling: unknown
Clouds: missing
Weather: TS  (thunderstorm)